createdAt,value
2022-12-18T00:00:49.177Z,4.40
2022-12-18T00:03:35.359Z,5.73
2022-12-18T00:06:19.612Z,5.03
2022-12-18T00:09:05.263Z,4.80
2022-12-18T00:11:49.310Z,5.23
2022-12-18T00:14:33.860Z,6.60
2022-12-18T00:17:17.947Z,6.80
2022-12-18T00:20:03.518Z,5.30
2022-12-18T00:22:47.682Z,7.67
2022-12-18T00:25:31.589Z,7.87
2022-12-18T00:28:15.626Z,5.17
2022-12-18T00:31:03.495Z,3.93
2022-12-18T00:33:47.626Z,4.50
2022-12-18T00:36:37.005Z,4.37
2022-12-18T00:39:20.994Z,3.60
2022-12-18T00:42:27.716Z,3.73
2022-12-18T00:45:13.206Z,4.13
2022-12-18T00:47:58.207Z,3.57
2022-12-18T00:50:42.294Z,5.13
2022-12-18T00:53:27.873Z,4.00
2022-12-18T00:56:14.662Z,4.40
2022-12-18T00:58:58.637Z,5.27
2022-12-18T01:01:42.773Z,4.13
2022-12-18T01:04:26.922Z,3.70
2022-12-18T01:07:10.920Z,4.40
2022-12-18T01:09:56.449Z,4.17
2022-12-18T01:12:40.852Z,4.07
2022-12-18T01:15:24.807Z,3.70
2022-12-18T01:18:09.505Z,4.00
2022-12-18T01:20:53.520Z,4.33
2022-12-18T01:23:38.046Z,4.17
2022-12-18T01:26:23.694Z,3.63
2022-12-18T01:29:08.156Z,3.93
2022-12-18T01:31:52.588Z,3.83
2022-12-18T01:34:37.718Z,3.77
2022-12-18T01:37:21.467Z,3.00
2022-12-18T01:40:07.678Z,3.30
2022-12-18T01:42:53.766Z,3.20
2022-12-18T01:45:37.776Z,3.60
2022-12-18T01:48:21.865Z,5.40
2022-12-18T01:51:06.593Z,3.47
2022-12-18T01:53:50.836Z,3.90
2022-12-18T01:56:34.749Z,3.60
2022-12-18T01:59:20.097Z,3.80
2022-12-18T02:02:05.358Z,3.97
2022-12-18T02:04:49.681Z,3.67
2022-12-18T02:07:44.896Z,3.83
2022-12-18T02:10:33.805Z,4.00
2022-12-18T02:13:23.199Z,3.10
2022-12-18T02:16:34.535Z,3.63
2022-12-18T02:19:39.940Z,3.23
2022-12-18T02:22:31.867Z,3.80
2022-12-18T02:25:25.114Z,4.10
2022-12-18T02:28:15.895Z,3.87
2022-12-18T02:31:03.941Z,3.57
2022-12-18T02:33:49.399Z,3.30
2022-12-18T02:36:34.735Z,3.10
2022-12-18T02:39:19.864Z,3.17
2022-12-18T02:42:14.713Z,3.00
2022-12-18T02:44:59.948Z,3.30
2022-12-18T02:47:51.803Z,2.97
2022-12-18T02:50:39.801Z,3.13
2022-12-18T02:53:33.934Z,2.77
2022-12-18T02:56:22.232Z,2.80
2022-12-18T02:59:11.856Z,2.50
2022-12-18T03:02:07.053Z,2.60
2022-12-18T03:05:00.899Z,2.70
2022-12-18T03:07:49.154Z,3.23
2022-12-18T03:10:37.907Z,3.03
2022-12-18T03:13:28.072Z,3.10
2022-12-18T03:16:16.560Z,3.40
2022-12-18T03:19:06.472Z,3.90
2022-12-18T03:21:55.710Z,3.40
2022-12-18T03:24:41.177Z,4.70
2022-12-18T03:27:26.973Z,8.60
2022-12-18T03:30:15.696Z,3.27
2022-12-18T03:33:08.191Z,3.17
2022-12-18T03:35:55.027Z,3.13
2022-12-18T03:38:40.261Z,3.40
2022-12-18T03:41:31.875Z,3.73
2022-12-18T03:44:47.188Z,4.47
2022-12-18T03:47:37.951Z,3.37
2022-12-18T03:50:29.982Z,3.50
2022-12-18T03:53:25.291Z,3.70
2022-12-18T03:56:11.965Z,3.83
2022-12-18T03:58:59.908Z,3.73
2022-12-18T04:01:49.737Z,3.83
2022-12-18T04:04:35.608Z,5.07
2022-12-18T04:07:22.320Z,4.47
2022-12-18T04:10:13.319Z,4.67
2022-12-18T04:13:00.158Z,3.90
2022-12-18T04:15:44.999Z,4.60
2022-12-18T04:18:32.488Z,5.03
2022-12-18T04:21:18.177Z,4.77
2022-12-18T04:24:03.853Z,5.27
2022-12-18T04:26:49.069Z,5.77
2022-12-18T04:29:35.831Z,7.00
2022-12-18T04:32:19.603Z,7.40
2022-12-18T04:35:07.715Z,6.37
2022-12-18T04:37:52.179Z,9.03
2022-12-18T04:40:36.093Z,10.83
2022-12-18T04:43:23.911Z,8.60
2022-12-18T04:46:09.597Z,9.93
2022-12-18T04:48:53.728Z,12.03
2022-12-18T04:51:37.457Z,8.93
2022-12-18T04:54:21.290Z,10.13
2022-12-18T04:57:05.035Z,9.23
2022-12-18T04:59:50.201Z,10.00
2022-12-18T05:02:34.157Z,8.63
2022-12-18T05:05:18.473Z,10.23
2022-12-18T05:08:02.236Z,9.67
2022-12-18T05:10:46.516Z,8.07
2022-12-18T05:13:30.698Z,9.47
2022-12-18T05:16:16.250Z,11.47
2022-12-18T05:19:00.020Z,11.70
2022-12-18T05:21:43.682Z,12.20
2022-12-18T05:24:28.054Z,10.33
2022-12-18T05:27:11.783Z,12.27
2022-12-18T05:29:55.540Z,12.67
2022-12-18T05:32:41.148Z,14.57
2022-12-18T05:35:24.935Z,13.10
2022-12-18T05:38:08.698Z,14.17
2022-12-18T05:40:53.109Z,14.87
2022-12-18T05:43:38.539Z,17.33
2022-12-18T05:46:22.546Z,14.07
2022-12-18T05:49:07.757Z,15.10
2022-12-18T05:51:51.593Z,14.53
2022-12-18T05:54:35.486Z,16.10
2022-12-18T05:57:19.400Z,15.40
2022-12-18T06:00:03.325Z,15.17
2022-12-18T06:02:56.105Z,14.47
2022-12-18T06:05:43.219Z,17.17
2022-12-18T06:08:27.018Z,16.77
2022-12-18T06:11:10.792Z,16.50
2022-12-18T06:13:58.695Z,17.70
2022-12-18T06:16:43.163Z,19.87
2022-12-18T06:19:26.961Z,18.43
2022-12-18T06:22:12.102Z,21.80
2022-12-18T06:24:56.029Z,19.57
2022-12-18T06:27:39.782Z,15.93
2022-12-18T06:30:23.691Z,17.47
2022-12-18T06:33:07.807Z,19.67
2022-12-18T06:35:52.787Z,21.60
2022-12-18T06:38:42.449Z,20.23
2022-12-18T06:41:26.573Z,18.77
2022-12-18T06:44:10.349Z,22.27
2022-12-18T06:46:54.957Z,20.93
2022-12-18T06:49:38.732Z,20.13
2022-12-18T06:52:22.533Z,21.67
2022-12-18T06:55:09.073Z,22.23
2022-12-18T06:57:52.944Z,22.50
2022-12-18T07:00:37.100Z,22.37
2022-12-18T07:03:21.059Z,25.33
2022-12-18T07:06:05.512Z,24.67
2022-12-18T07:08:50.221Z,23.27
2022-12-18T07:11:36.311Z,26.93
2022-12-18T07:14:20.263Z,24.93
2022-12-18T07:17:04.229Z,30.83
2022-12-18T07:19:48.026Z,28.87
2022-12-18T07:22:31.771Z,29.83
2022-12-18T07:25:15.468Z,28.83
2022-12-18T07:28:00.623Z,29.23
2022-12-18T07:30:44.395Z,26.13
2022-12-18T07:33:28.257Z,28.07
2022-12-18T07:36:13.386Z,23.33
2022-12-18T07:38:57.225Z,27.67
2022-12-18T07:41:46.752Z,27.87
2022-12-18T07:44:34.664Z,23.40
2022-12-18T07:47:18.476Z,26.57
2022-12-18T07:50:02.244Z,27.23
2022-12-18T07:52:46.713Z,24.73
2022-12-18T07:55:47.918Z,24.60
2022-12-18T07:58:35.001Z,24.57
2022-12-18T08:01:20.234Z,26.27
2022-12-18T08:04:05.375Z,27.57
2022-12-18T08:06:49.216Z,30.17
2022-12-18T08:09:33.043Z,42.17
2022-12-18T08:12:16.881Z,32.80
2022-12-18T08:15:00.679Z,32.03
2022-12-18T08:17:45.785Z,30.27
2022-12-18T08:20:29.549Z,24.83
2022-12-18T08:23:13.361Z,28.63
2022-12-18T08:25:57.157Z,32.17
2022-12-18T08:28:41.075Z,31.33
2022-12-18T08:31:25.727Z,30.53
2022-12-18T08:34:11.209Z,28.70
2022-12-18T08:36:55.001Z,30.87
2022-12-18T08:39:38.808Z,28.97
2022-12-18T08:42:40.142Z,28.77
2022-12-18T08:45:23.943Z,34.67
2022-12-18T08:48:08.087Z,33.50
2022-12-18T08:50:58.487Z,30.63
2022-12-18T08:53:42.528Z,30.77
2022-12-18T08:56:26.795Z,32.40
2022-12-18T08:59:15.909Z,34.00
2022-12-18T09:02:03.240Z,32.20
2022-12-18T09:04:55.378Z,34.23
2022-12-18T09:07:42.518Z,33.00
2022-12-18T09:10:26.271Z,33.57
2022-12-18T09:13:10.078Z,36.17
2022-12-18T09:15:56.312Z,39.37
2022-12-18T09:18:40.330Z,33.60
2022-12-18T09:21:24.478Z,31.70
2022-12-18T09:24:15.406Z,34.90
2022-12-18T09:26:59.867Z,34.37
2022-12-18T09:29:43.588Z,34.97
2022-12-18T09:32:27.414Z,33.40
2022-12-18T09:35:11.151Z,35.30
2022-12-18T09:37:55.479Z,33.67
2022-12-18T09:40:45.962Z,31.60
2022-12-18T09:43:35.886Z,34.27
2022-12-18T09:46:26.516Z,35.97
2022-12-18T09:49:16.849Z,37.10
2022-12-18T09:52:07.060Z,34.73
2022-12-18T09:54:55.683Z,24.87
2022-12-18T09:57:47.510Z,31.40
2022-12-18T10:00:31.502Z,32.33
2022-12-18T10:03:17.309Z,32.07
2022-12-18T10:06:08.717Z,31.30
2022-12-18T10:09:01.035Z,29.00
2022-12-18T10:11:55.209Z,29.00
2022-12-18T10:14:50.188Z,33.33
2022-12-18T10:17:44.496Z,32.43
2022-12-18T10:20:34.264Z,29.10
2022-12-18T10:23:27.529Z,33.83
2022-12-18T10:26:13.728Z,37.97
2022-12-18T10:29:05.579Z,29.20
2022-12-18T10:31:51.052Z,34.00
2022-12-18T10:34:35.009Z,36.23
2022-12-18T10:37:21.147Z,31.47
2022-12-18T10:40:18.443Z,33.20
2022-12-18T10:43:07.379Z,36.90
2022-12-18T10:46:19.517Z,33.07
2022-12-18T10:49:04.975Z,38.23
2022-12-18T10:51:49.026Z,32.83
2022-12-18T10:54:34.153Z,38.80
2022-12-18T10:57:31.594Z,40.53
2022-12-18T11:00:26.215Z,32.07
2022-12-18T11:03:32.652Z,36.03
2022-12-18T11:06:19.847Z,32.70
2022-12-18T11:09:13.131Z,34.93
2022-12-18T11:12:00.317Z,38.17
2022-12-18T11:14:48.043Z,37.23
2022-12-18T11:17:34.697Z,33.57
2022-12-18T11:20:33.934Z,35.00
2022-12-18T11:23:21.375Z,32.63
2022-12-18T11:26:07.056Z,34.03
2022-12-18T11:28:53.839Z,32.33
2022-12-18T11:31:37.702Z,35.17
2022-12-18T11:34:29.764Z,42.03
2022-12-18T11:37:20.182Z,33.27
2022-12-18T11:40:13.902Z,44.67
2022-12-18T11:43:06.645Z,38.77
2022-12-18T11:45:56.382Z,43.83
2022-12-18T11:48:47.020Z,45.20
2022-12-18T11:51:37.213Z,39.90
2022-12-18T11:54:20.964Z,44.27
2022-12-18T11:57:18.628Z,44.27
2022-12-18T12:00:07.356Z,50.07
2022-12-18T12:03:27.968Z,49.50
2022-12-18T12:06:19.476Z,45.17
2022-12-18T12:09:15.112Z,45.33
2022-12-18T12:12:14.640Z,45.27
2022-12-18T12:15:12.473Z,42.47
2022-12-18T12:18:08.172Z,42.67
2022-12-18T12:21:05.292Z,43.97
2022-12-18T12:23:55.441Z,47.30
2022-12-18T12:26:47.356Z,47.60
2022-12-18T12:29:44.770Z,48.90
2022-12-18T12:32:48.512Z,45.17
2022-12-18T12:35:44.922Z,40.23
2022-12-18T12:38:33.700Z,37.83
2022-12-18T12:41:39.349Z,42.07
2022-12-18T12:44:28.418Z,40.30
2022-12-18T12:47:18.828Z,45.87
2022-12-18T12:50:08.014Z,49.37
2022-12-18T12:52:55.518Z,38.33
2022-12-18T12:55:41.272Z,39.10
2022-12-18T12:58:33.639Z,39.90
2022-12-18T13:01:27.585Z,43.13
2022-12-18T13:04:24.089Z,38.27
2022-12-18T13:07:14.896Z,32.87
2022-12-18T13:10:26.817Z,24.67
2022-12-18T13:13:11.677Z,23.53
2022-12-18T13:16:07.437Z,13.20
2022-12-18T13:18:52.465Z,16.53
2022-12-18T13:21:37.714Z,23.47
2022-12-18T13:24:27.464Z,16.77
2022-12-18T13:27:44.358Z,25.30
2022-12-18T13:30:49.436Z,30.70
2022-12-18T13:36:51.487Z,25.50
2022-12-18T13:39:36.941Z,11.73
2022-12-18T13:43:08.451Z,16.53
2022-12-18T13:46:03.075Z,12.93
2022-12-18T13:48:54.648Z,12.23
2022-12-18T13:51:42.907Z,10.77
2022-12-18T13:54:35.355Z,12.23
2022-12-18T13:57:30.883Z,14.77
2022-12-18T14:00:29.719Z,13.33
2022-12-18T14:03:27.294Z,13.83
2022-12-18T14:06:14.136Z,9.57
2022-12-18T14:09:00.690Z,17.27
2022-12-18T14:11:50.952Z,17.83
2022-12-18T14:14:35.926Z,14.33
2022-12-18T14:17:21.218Z,12.07
2022-12-18T14:20:14.982Z,12.30
2022-12-18T14:22:59.702Z,13.07
2022-12-18T14:25:48.578Z,14.53
2022-12-18T14:28:34.016Z,11.30
2022-12-18T14:31:22.430Z,14.50
2022-12-18T14:34:06.314Z,15.63
2022-12-18T14:36:57.013Z,11.87
2022-12-18T14:39:41.233Z,16.57
2022-12-18T14:42:29.243Z,13.10
2022-12-18T14:45:41.440Z,21.20
2022-12-18T14:48:38.380Z,16.10
2022-12-18T14:51:24.432Z,14.50
2022-12-18T14:54:19.274Z,23.00
2022-12-18T14:57:05.997Z,26.67
2022-12-18T14:59:49.949Z,17.23
2022-12-18T15:02:38.153Z,28.13
2022-12-18T15:05:26.851Z,26.53
2022-12-18T15:08:42.978Z,18.70
2022-12-18T15:11:36.057Z,17.13
2022-12-18T15:14:36.726Z,20.47
2022-12-18T15:17:24.133Z,14.33
2022-12-18T15:20:13.699Z,18.00
2022-12-18T15:22:57.583Z,18.73
2022-12-18T15:25:41.569Z,16.70
2022-12-18T15:28:29.547Z,16.17
2022-12-18T15:31:26.441Z,15.43
2022-12-18T15:34:22.732Z,13.87
2022-12-18T15:37:09.620Z,16.20
2022-12-18T15:39:53.588Z,14.40
2022-12-18T15:42:54.647Z,14.53
2022-12-18T15:45:38.537Z,15.43
2022-12-18T15:48:24.263Z,11.83
2022-12-18T15:51:16.898Z,22.87
2022-12-18T15:54:05.031Z,15.20
2022-12-18T15:57:06.502Z,15.27
2022-12-18T15:59:50.435Z,17.67
2022-12-18T16:02:34.537Z,20.40
2022-12-18T16:05:20.417Z,18.43
2022-12-18T16:08:04.528Z,19.23
2022-12-18T16:10:49.934Z,19.03
2022-12-18T16:13:34.186Z,16.43
2022-12-18T16:16:18.676Z,17.40
2022-12-18T16:19:02.531Z,19.90
2022-12-18T16:21:48.569Z,29.30
2022-12-18T16:24:37.292Z,20.47
2022-12-18T16:27:23.440Z,23.93
2022-12-18T16:30:08.993Z,18.93
2022-12-18T16:32:52.921Z,21.23
2022-12-18T16:35:38.316Z,19.03
2022-12-18T16:38:22.373Z,16.50
2022-12-18T16:41:36.554Z,21.67
2022-12-18T16:44:22.217Z,28.17
2022-12-18T16:47:06.260Z,17.03
2022-12-18T16:49:53.559Z,25.27
2022-12-18T16:52:41.148Z,25.30
2022-12-18T16:55:25.077Z,23.97
2022-12-18T16:58:09.040Z,16.50
2022-12-18T17:00:54.437Z,21.93
2022-12-18T17:03:38.928Z,14.13
2022-12-18T17:06:23.108Z,25.60
2022-12-18T17:09:09.283Z,28.30
2022-12-18T17:11:53.651Z,27.73
2022-12-18T17:14:37.946Z,25.43
2022-12-18T17:17:24.104Z,26.33
2022-12-18T17:20:09.030Z,23.00
2022-12-18T17:22:53.094Z,16.10
2022-12-18T17:25:41.249Z,25.27
2022-12-18T17:28:26.066Z,20.57
2022-12-18T17:31:14.243Z,28.47
2022-12-18T17:34:00.348Z,25.97
2022-12-18T17:36:44.405Z,22.60
2022-12-18T17:39:29.039Z,17.93
2022-12-18T17:42:15.380Z,16.17
2022-12-18T17:44:59.860Z,29.50
2022-12-18T17:47:43.797Z,27.03
2022-12-18T17:50:29.128Z,22.90
2022-12-18T17:53:13.249Z,28.53
2022-12-18T17:55:57.764Z,26.23
2022-12-18T17:58:42.364Z,16.07
2022-12-18T18:01:27.384Z,16.03
2022-12-18T18:04:11.666Z,17.23
2022-12-18T18:06:57.200Z,21.97
2022-12-18T18:09:41.210Z,34.80
2022-12-18T18:12:42.849Z,28.97
2022-12-18T18:15:26.916Z,22.07
2022-12-18T18:18:11.112Z,19.80
2022-12-18T18:20:55.744Z,24.50
2022-12-18T18:23:41.961Z,22.70
2022-12-18T18:26:29.489Z,24.03
2022-12-18T18:29:15.992Z,25.73
2022-12-18T18:32:02.678Z,27.87
2022-12-18T18:34:46.618Z,25.37
2022-12-18T18:37:30.802Z,19.10
2022-12-18T18:40:16.618Z,24.50
2022-12-18T18:43:02.676Z,22.10
2022-12-18T18:45:48.714Z,24.03
2022-12-18T18:48:35.917Z,22.33
2022-12-18T18:51:21.970Z,23.03
2022-12-18T18:54:06.291Z,20.67
2022-12-18T18:59:55.857Z,22.13
2022-12-18T19:02:39.909Z,17.47
2022-12-18T19:05:23.935Z,18.97
2022-12-18T19:08:07.960Z,25.33
2022-12-18T19:10:57.657Z,24.00
2022-12-18T19:13:42.538Z,21.57
2022-12-18T19:16:28.261Z,23.90
2022-12-18T19:19:12.355Z,23.27
2022-12-18T19:21:56.675Z,23.83
2022-12-18T19:24:40.799Z,27.77
2022-12-18T19:27:24.687Z,24.60
2022-12-18T19:30:11.950Z,23.13
2022-12-18T19:32:56.206Z,22.40
2022-12-18T19:35:41.272Z,25.93
2022-12-18T19:38:25.670Z,26.43
2022-12-18T19:41:10.035Z,24.60
2022-12-18T19:43:54.301Z,24.83
2022-12-18T19:46:42.004Z,24.47
2022-12-18T19:49:26.064Z,19.10
2022-12-18T19:52:09.791Z,23.30
2022-12-18T19:54:53.746Z,23.53
2022-12-18T19:57:37.416Z,19.47
2022-12-18T20:00:23.730Z,23.07
2022-12-18T20:03:21.241Z,19.57
2022-12-18T20:06:12.102Z,21.27
2022-12-18T20:09:00.250Z,22.03
2022-12-18T20:11:45.124Z,21.87
2022-12-18T20:14:29.265Z,25.23
2022-12-18T20:17:13.391Z,24.23
2022-12-18T20:19:59.056Z,24.47
2022-12-18T20:22:42.808Z,22.30
2022-12-18T20:25:26.640Z,21.23
2022-12-18T20:28:10.479Z,24.80
2022-12-18T20:31:01.561Z,18.67
2022-12-18T20:33:48.614Z,20.53
2022-12-18T20:36:36.431Z,18.03
2022-12-18T20:39:22.575Z,20.90
2022-12-18T20:42:06.864Z,21.87
2022-12-18T20:44:51.103Z,20.90
2022-12-18T20:47:35.011Z,21.10
2022-12-18T20:50:19.116Z,24.33
2022-12-18T20:53:05.249Z,23.53
2022-12-18T20:55:49.190Z,25.13
2022-12-18T20:58:33.195Z,21.63
2022-12-18T21:01:20.587Z,24.53
2022-12-18T21:04:04.656Z,22.23
2022-12-18T21:06:54.278Z,20.33
2022-12-18T21:09:47.522Z,21.97
2022-12-18T21:12:48.204Z,21.80
2022-12-18T21:15:39.062Z,20.70
2022-12-18T21:18:23.115Z,20.83
2022-12-18T21:21:07.392Z,26.17
2022-12-18T21:23:52.019Z,22.43
2022-12-18T21:26:44.848Z,22.27
2022-12-18T21:29:29.709Z,24.00
2022-12-18T21:32:14.186Z,20.77
2022-12-18T21:34:58.053Z,23.37
2022-12-18T21:37:41.882Z,23.33
2022-12-18T21:40:26.250Z,19.20
2022-12-18T21:43:29.628Z,24.67
2022-12-18T21:46:13.420Z,22.43
2022-12-18T21:48:57.224Z,23.40
2022-12-18T21:51:41.575Z,20.97
2022-12-18T21:54:27.209Z,17.70
2022-12-18T21:57:13.436Z,21.83
2022-12-18T21:59:58.851Z,21.90
2022-12-18T22:02:43.038Z,22.00
2022-12-18T22:05:27.117Z,21.80
2022-12-18T22:08:11.222Z,23.10
2022-12-18T22:10:55.551Z,22.40
2022-12-18T22:13:39.560Z,17.40
2022-12-18T22:16:25.166Z,21.97
2022-12-18T22:19:09.675Z,20.90
2022-12-18T22:21:54.079Z,23.73
2022-12-18T22:24:38.045Z,24.93
2022-12-18T22:27:22.060Z,22.87
2022-12-18T22:30:05.990Z,25.83
2022-12-18T22:32:51.337Z,24.43
2022-12-18T22:35:35.238Z,20.93
2022-12-18T22:38:19.807Z,23.20
2022-12-18T22:41:03.790Z,27.30
2022-12-18T22:43:47.751Z,26.33
2022-12-18T22:46:34.606Z,29.10
2022-12-18T22:49:22.269Z,25.77
2022-12-18T22:52:09.447Z,26.93
2022-12-18T22:54:54.253Z,24.13
2022-12-18T22:57:38.386Z,26.87
2022-12-18T23:00:24.859Z,26.97
2022-12-18T23:03:09.806Z,28.00
2022-12-18T23:06:02.901Z,27.80
2022-12-18T23:08:50.544Z,26.57
2022-12-18T23:11:38.422Z,26.93
2022-12-18T23:14:22.526Z,30.70
2022-12-18T23:17:06.495Z,27.93
2022-12-18T23:19:50.494Z,34.30
2022-12-18T23:22:35.856Z,30.77
2022-12-18T23:25:19.664Z,28.73
2022-12-18T23:28:03.534Z,28.13
2022-12-18T23:30:47.345Z,32.10
2022-12-18T23:33:31.145Z,34.90
2022-12-18T23:36:16.015Z,39.70
2022-12-18T23:39:02.320Z,35.40
2022-12-18T23:41:46.037Z,40.47
2022-12-18T23:44:29.854Z,33.37
2022-12-18T23:47:13.679Z,38.50
2022-12-18T23:49:57.425Z,40.37
2022-12-18T23:52:41.145Z,33.80
2022-12-18T23:55:26.329Z,32.30
2022-12-18T23:58:17.913Z,38.67
